sensor_id;sensor_type;location;lat;lon;timestamp;pressure;altitude;pressure_sealevel;temperature;humidity
13800;BME280;6971;50.028;9.258;2023-02-28T00:03:07;100450.47;;;-3.65;100.00
13800;BME280;6971;50.028;9.258;2023-02-28T00:08:08;100443.53;;;-3.69;100.00
13800;BME280;6971;50.028;9.258;2023-02-28T00:13:09;100445.06;;;-3.77;100.00
13800;BME280;6971;50.028;9.258;2023-02-28T00:18:09;100442.63;;;-3.71;100.00
13800;BME280;6971;50.028;9.258;2023-02-28T00:23:09;100436.41;;;-3.81;100.00
13800;BME280;6971;50.028;9.258;2023-02-28T00:28:10;100448.41;;;-3.82;100.00
13800;BME280;6971;50.028;9.258;2023-02-28T00:33:10;100446.41;;;-3.95;100.00
13800;BME280;6971;50.028;9.258;2023-02-28T00:38:11;100442.88;;;-4.00;100.00
13800;BME280;6971;50.028;9.258;2023-02-28T00:43:11;100441.97;;;-4.02;100.00
13800;BME280;6971;50.028;9.258;2023-02-28T00:48:11;100447.06;;;-4.06;100.00
13800;BME280;6971;50.028;9.258;2023-02-28T00:53:12;100446.25;;;-4.03;100.00
13800;BME280;6971;50.028;9.258;2023-02-28T00:58:12;100446.97;;;-4.10;100.00
13800;BME280;6971;50.028;9.258;2023-02-28T01:03:12;100470.09;;;-4.12;100.00
13800;BME280;6971;50.028;9.258;2023-02-28T01:08:13;100460.59;;;-4.14;100.00
13800;BME280;6971;50.028;9.258;2023-02-28T01:13:13;100447.53;;;-4.22;100.00
13800;BME280;6971;50.028;9.258;2023-02-28T01:18:14;100454.44;;;-4.21;100.00
13800;BME280;6971;50.028;9.258;2023-02-28T01:23:14;100449.09;;;-4.29;100.00
13800;BME280;6971;50.028;9.258;2023-02-28T01:28:15;100448.16;;;-4.33;100.00
13800;BME280;6971;50.028;9.258;2023-02-28T01:33:15;100445.59;;;-4.33;100.00
13800;BME280;6971;50.028;9.258;2023-02-28T01:38:15;100434.25;;;-4.41;100.00
13800;BME280;6971;50.028;9.258;2023-02-28T01:43:25;100431.59;;;-4.44;100.00
13800;BME280;6971;50.028;9.258;2023-02-28T01:48:29;100430.81;;;-4.41;100.00
13800;BME280;6971;50.028;9.258;2023-02-28T01:53:35;100430.56;;;-4.51;100.00
13800;BME280;6971;50.028;9.258;2023-02-28T01:58:36;100422.84;;;-4.52;100.00
13800;BME280;6971;50.028;9.258;2023-02-28T02:03:37;100406.59;;;-4.50;100.00
13800;BME280;6971;50.028;9.258;2023-02-28T02:08:37;100421.09;;;-4.53;100.00
13800;BME280;6971;50.028;9.258;2023-02-28T02:24:29;100406.63;;;-4.48;100.00
13800;BME280;6971;50.028;9.258;2023-02-28T02:30:01;100400.38;;;-4.60;100.00
13800;BME280;6971;50.028;9.258;2023-02-28T02:40:22;100402.81;;;-4.64;100.00
13800;BME280;6971;50.028;9.258;2023-02-28T02:45:38;100396.94;;;-4.59;100.00
13800;BME280;6971;50.028;9.258;2023-02-28T02:50:44;100400.41;;;-4.58;100.00
13800;BME280;6971;50.028;9.258;2023-02-28T02:55:47;100396.06;;;-4.61;100.00
13800;BME280;6971;50.028;9.258;2023-02-28T03:00:58;100390.63;;;-4.73;100.00
13800;BME280;6971;50.028;9.258;2023-02-28T03:06:01;100393.19;;;-4.73;100.00
13800;BME280;6971;50.028;9.258;2023-02-28T03:11:05;100393.19;;;-4.73;100.00
13800;BME280;6971;50.028;9.258;2023-02-28T03:21:41;100390.19;;;-4.53;100.00
13800;BME280;6971;50.028;9.258;2023-02-28T03:26:47;100391.66;;;-4.65;100.00
13800;BME280;6971;50.028;9.258;2023-02-28T03:31:53;100395.19;;;-4.61;100.00
13800;BME280;6971;50.028;9.258;2023-02-28T03:36:57;100396.59;;;-4.74;100.00
13800;BME280;6971;50.028;9.258;2023-02-28T03:42:03;100394.84;;;-4.75;100.00
13800;BME280;6971;50.028;9.258;2023-02-28T03:47:23;100398.25;;;-4.76;100.00
13800;BME280;6971;50.028;9.258;2023-02-28T03:52:27;100394.00;;;-4.76;100.00
13800;BME280;6971;50.028;9.258;2023-02-28T03:57:40;100395.75;;;-4.73;100.00
13800;BME280;6971;50.028;9.258;2023-02-28T04:02:43;100403.31;;;-4.79;100.00
13800;BME280;6971;50.028;9.258;2023-02-28T04:07:43;100399.75;;;-4.85;100.00
13800;BME280;6971;50.028;9.258;2023-02-28T04:12:44;100397.88;;;-4.92;100.00
13800;BME280;6971;50.028;9.258;2023-02-28T04:17:44;100407.06;;;-5.02;100.00
13800;BME280;6971;50.028;9.258;2023-02-28T04:22:44;100409.63;;;-5.02;100.00
13800;BME280;6971;50.028;9.258;2023-02-28T04:27:45;100402.53;;;-5.11;100.00
13800;BME280;6971;50.028;9.258;2023-02-28T04:32:45;100400.72;;;-5.15;100.00
13800;BME280;6971;50.028;9.258;2023-02-28T04:37:45;100401.56;;;-5.16;100.00
13800;BME280;6971;50.028;9.258;2023-02-28T04:42:46;100402.31;;;-5.20;100.00
13800;BME280;6971;50.028;9.258;2023-02-28T04:47:46;100403.16;;;-5.21;100.00
13800;BME280;6971;50.028;9.258;2023-02-28T04:52:49;100397.13;;;-5.21;100.00
13800;BME280;6971;50.028;9.258;2023-02-28T04:57:49;100401.38;;;-5.24;100.00
13800;BME280;6971;50.028;9.258;2023-02-28T05:02:49;100399.41;;;-5.34;100.00
13800;BME280;6971;50.028;9.258;2023-02-28T05:07:50;100395.03;;;-5.37;100.00
13800;BME280;6971;50.028;9.258;2023-02-28T05:12:51;100409.38;;;-5.45;100.00
13800;BME280;6971;50.028;9.258;2023-02-28T05:17:52;100410.28;;;-5.43;100.00
13800;BME280;6971;50.028;9.258;2023-02-28T05:22:52;100411.22;;;-5.39;100.00
13800;BME280;6971;50.028;9.258;2023-02-28T05:27:52;100415.16;;;-5.52;100.00
13800;BME280;6971;50.028;9.258;2023-02-28T05:32:53;100412.34;;;-5.61;100.00
13800;BME280;6971;50.028;9.258;2023-02-28T05:37:53;100414.88;;;-5.63;100.00
13800;BME280;6971;50.028;9.258;2023-02-28T05:42:53;100415.72;;;-5.64;100.00
13800;BME280;6971;50.028;9.258;2023-02-28T05:47:54;100415.50;;;-5.70;100.00
13800;BME280;6971;50.028;9.258;2023-02-28T05:52:55;100422.28;;;-5.74;100.00
13800;BME280;6971;50.028;9.258;2023-02-28T05:57:55;100419.53;;;-5.80;100.00
13800;BME280;6971;50.028;9.258;2023-02-28T06:02:56;100429.94;;;-5.76;100.00
13800;BME280;6971;50.028;9.258;2023-02-28T06:07:58;100425.19;;;-5.61;100.00
13800;BME280;6971;50.028;9.258;2023-02-28T06:13:02;100431.53;;;-5.79;100.00
13800;BME280;6971;50.028;9.258;2023-02-28T06:18:03;100425.00;;;-5.69;100.00
13800;BME280;6971;50.028;9.258;2023-02-28T06:23:04;100439.41;;;-5.74;100.00
13800;BME280;6971;50.028;9.258;2023-02-28T06:28:04;100444.50;;;-5.76;100.00
13800;BME280;6971;50.028;9.258;2023-02-28T06:33:05;100450.34;;;-5.80;100.00
13800;BME280;6971;50.028;9.258;2023-02-28T06:38:05;100462.53;;;-5.73;100.00
13800;BME280;6971;50.028;9.258;2023-02-28T06:43:05;100462.53;;;-5.73;100.00
13800;BME280;6971;50.028;9.258;2023-02-28T06:48:07;100465.19;;;-5.70;100.00
13800;BME280;6971;50.028;9.258;2023-02-28T06:53:07;100463.56;;;-5.68;100.00
13800;BME280;6971;50.028;9.258;2023-02-28T06:58:07;100461.31;;;-5.55;100.00
13800;BME280;6971;50.028;9.258;2023-02-28T07:03:14;100470.13;;;-5.47;100.00
13800;BME280;6971;50.028;9.258;2023-02-28T07:08:15;100471.69;;;-5.52;100.00
13800;BME280;6971;50.028;9.258;2023-02-28T07:13:16;100475.25;;;-5.47;100.00
13800;BME280;6971;50.028;9.258;2023-02-28T07:18:16;100473.09;;;-5.33;100.00
13800;BME280;6971;50.028;9.258;2023-02-28T07:23:17;100468.34;;;-5.19;100.00
13800;BME280;6971;50.028;9.258;2023-02-28T07:28:17;100470.41;;;-5.04;100.00
13800;BME280;6971;50.028;9.258;2023-02-28T07:33:18;100467.78;;;-4.73;100.00
13800;BME280;6971;50.028;9.258;2023-02-28T07:38:18;100472.56;;;-4.53;100.00
13800;BME280;6971;50.028;9.258;2023-02-28T07:43:19;100471.19;;;-4.00;100.00
13800;BME280;6971;50.028;9.258;2023-02-28T07:48:19;100475.25;;;-3.29;90.60
13800;BME280;6971;50.028;9.258;2023-02-28T07:53:20;100472.97;;;-3.13;88.98
13800;BME280;6971;50.028;9.258;2023-02-28T07:58:20;100477.44;;;-3.06;89.63
13800;BME280;6971;50.028;9.258;2023-02-28T08:03:22;100478.50;;;-2.43;83.75
13800;BME280;6971;50.028;9.258;2023-02-28T08:08:22;100489.94;;;-1.68;81.82
13800;BME280;6971;50.028;9.258;2023-02-28T08:13:23;100480.53;;;-0.86;76.86
13800;BME280;6971;50.028;9.258;2023-02-28T08:18:24;100495.44;;;0.80;71.20
13800;BME280;6971;50.028;9.258;2023-02-28T08:23:25;100499.88;;;1.25;68.11
13800;BME280;6971;50.028;9.258;2023-02-28T08:28:25;100488.63;;;1.49;64.68
13800;BME280;6971;50.028;9.258;2023-02-28T08:33:27;100499.88;;;1.68;65.27
13800;BME280;6971;50.028;9.258;2023-02-28T08:38:27;100500.56;;;2.64;61.17
13800;BME280;6971;50.028;9.258;2023-02-28T08:43:28;100479.53;;;3.02;60.31
13800;BME280;6971;50.028;9.258;2023-02-28T08:48:30;100488.38;;;2.72;58.92
13800;BME280;6971;50.028;9.258;2023-02-28T08:53:31;100490.56;;;3.46;57.00
13800;BME280;6971;50.028;9.258;2023-02-28T08:58:33;100502.00;;;3.21;56.82
13800;BME280;6971;50.028;9.258;2023-02-28T09:03:34;100501.72;;;3.62;53.93
13800;BME280;6971;50.028;9.258;2023-02-28T09:08:35;100483.56;;;4.39;53.95
13800;BME280;6971;50.028;9.258;2023-02-28T09:13:36;100477.53;;;4.35;52.08
13800;BME280;6971;50.028;9.258;2023-02-28T09:18:37;100476.75;;;4.99;51.31
13800;BME280;6971;50.028;9.258;2023-02-28T09:23:38;100478.13;;;3.77;50.73
13800;BME280;6971;50.028;9.258;2023-02-28T09:28:39;100483.53;;;3.57;50.59
13800;BME280;6971;50.028;9.258;2023-02-28T09:33:39;100480.22;;;5.00;49.71
13800;BME280;6971;50.028;9.258;2023-02-28T09:38:39;100478.69;;;4.85;48.71
13800;BME280;6971;50.028;9.258;2023-02-28T09:43:44;100471.47;;;5.04;47.00
13800;BME280;6971;50.028;9.258;2023-02-28T09:48:47;100476.16;;;4.00;48.44
13800;BME280;6971;50.028;9.258;2023-02-28T09:53:48;100480.44;;;4.09;48.96
13800;BME280;6971;50.028;9.258;2023-02-28T09:58:52;100492.31;;;4.35;47.81
13800;BME280;6971;50.028;9.258;2023-02-28T10:03:57;100489.91;;;4.17;48.51
13800;BME280;6971;50.028;9.258;2023-02-28T10:09:03;100497.84;;;4.83;46.43
13800;BME280;6971;50.028;9.258;2023-02-28T10:14:11;100488.47;;;3.88;47.82
13800;BME280;6971;50.028;9.258;2023-02-28T10:19:27;100492.41;;;3.30;48.67
13800;BME280;6971;50.028;9.258;2023-02-28T10:24:55;100498.56;;;4.21;47.68
13800;BME280;6971;50.028;9.258;2023-02-28T10:30:01;100490.09;;;4.00;46.70
13800;BME280;6971;50.028;9.258;2023-02-28T10:35:24;100491.91;;;3.89;46.62
13800;BME280;6971;50.028;9.258;2023-02-28T10:40:29;100494.88;;;3.45;47.91
13800;BME280;6971;50.028;9.258;2023-02-28T10:45:35;100497.75;;;3.11;48.99
13800;BME280;6971;50.028;9.258;2023-02-28T11:01:15;100487.31;;;4.16;46.83
13800;BME280;6971;50.028;9.258;2023-02-28T11:06:17;100496.19;;;4.76;47.13
13800;BME280;6971;50.028;9.258;2023-02-28T11:11:20;100488.97;;;4.26;49.54
13800;BME280;6971;50.028;9.258;2023-02-28T11:16:22;100492.00;;;4.66;48.29
13800;BME280;6971;50.028;9.258;2023-02-28T11:21:34;100479.44;;;5.53;45.77
13800;BME280;6971;50.028;9.258;2023-02-28T11:26:39;100480.53;;;6.38;43.92
13800;BME280;6971;50.028;9.258;2023-02-28T11:31:40;100469.41;;;5.23;44.51
13800;BME280;6971;50.028;9.258;2023-02-28T11:36:40;100468.28;;;5.41;45.74
13800;BME280;6971;50.028;9.258;2023-02-28T11:48:04;100476.13;;;5.95;44.26
13800;BME280;6971;50.028;9.258;2023-02-28T11:52:52;100473.28;;;5.55;45.14
13800;BME280;6971;50.028;9.258;2023-02-28T12:30:19;100444.72;;;4.86;44.54
13800;BME280;6971;50.028;9.258;2023-02-28T12:35:25;100447.81;;;5.67;43.71
13800;BME280;6971;50.028;9.258;2023-02-28T12:40:43;100441.78;;;5.61;43.85
13800;BME280;6971;50.028;9.258;2023-02-28T12:45:46;100432.78;;;5.26;43.94
13800;BME280;6971;50.028;9.258;2023-02-28T12:50:48;100445.34;;;6.09;43.69
13800;BME280;6971;50.028;9.258;2023-02-28T13:12:14;100435.44;;;6.25;43.25
13800;BME280;6971;50.028;9.258;2023-02-28T13:17:19;100433.84;;;6.17;43.16
13800;BME280;6971;50.028;9.258;2023-02-28T13:27:39;100418.56;;;5.44;43.38
13800;BME280;6971;50.028;9.258;2023-02-28T13:32:40;100420.91;;;5.58;43.66
13800;BME280;6971;50.028;9.258;2023-02-28T13:37:44;100418.56;;;5.44;44.13
13800;BME280;6971;50.028;9.258;2023-02-28T13:42:48;100414.53;;;5.75;44.41
13800;BME280;6971;50.028;9.258;2023-02-28T13:48:04;100407.19;;;5.47;44.02
13800;BME280;6971;50.028;9.258;2023-02-28T14:09:02;100392.28;;;5.52;44.07
13800;BME280;6971;50.028;9.258;2023-02-28T14:14:06;100392.63;;;5.81;44.67
13800;BME280;6971;50.028;9.258;2023-02-28T14:19:19;100393.91;;;5.58;44.50
13800;BME280;6971;50.028;9.258;2023-02-28T14:34:58;100385.00;;;5.18;44.75
13800;BME280;6971;50.028;9.258;2023-02-28T14:40:03;100371.28;;;5.03;45.06
13800;BME280;6971;50.028;9.258;2023-02-28T14:45:05;100373.88;;;5.05;45.27
13800;BME280;6971;50.028;9.258;2023-02-28T14:50:06;100373.13;;;5.50;45.52
13800;BME280;6971;50.028;9.258;2023-02-28T14:55:15;100384.34;;;5.05;45.48
13800;BME280;6971;50.028;9.258;2023-02-28T15:00:29;100379.03;;;5.09;45.85
13800;BME280;6971;50.028;9.258;2023-02-28T15:05:32;100377.63;;;4.88;45.87
13800;BME280;6971;50.028;9.258;2023-02-28T15:10:33;100370.53;;;4.96;46.44
13800;BME280;6971;50.028;9.258;2023-02-28T15:15:47;100375.00;;;4.88;46.26
13800;BME280;6971;50.028;9.258;2023-02-28T15:20:50;100374.38;;;4.72;46.63
13800;BME280;6971;50.028;9.258;2023-02-28T15:25:52;100372.81;;;4.59;46.48
13800;BME280;6971;50.028;9.258;2023-02-28T15:31:00;100359.22;;;4.35;46.80
13800;BME280;6971;50.028;9.258;2023-02-28T15:36:15;100369.03;;;4.15;47.39
13800;BME280;6971;50.028;9.258;2023-02-28T15:41:34;100369.19;;;4.01;47.93
13800;BME280;6971;50.028;9.258;2023-02-28T15:46:35;100376.22;;;3.98;48.78
13800;BME280;6971;50.028;9.258;2023-02-28T15:51:37;100378.13;;;3.82;48.09
13800;BME280;6971;50.028;9.258;2023-02-28T15:56:45;100379.88;;;3.79;48.74
13800;BME280;6971;50.028;9.258;2023-02-28T16:01:47;100379.19;;;3.60;49.47
13800;BME280;6971;50.028;9.258;2023-02-28T16:07:06;100386.28;;;3.46;50.48
13800;BME280;6971;50.028;9.258;2023-02-28T16:12:08;100387.25;;;3.35;50.28
13800;BME280;6971;50.028;9.258;2023-02-28T16:17:25;100382.19;;;3.18;51.10
13800;BME280;6971;50.028;9.258;2023-02-28T16:22:26;100384.91;;;3.03;52.92
13800;BME280;6971;50.028;9.258;2023-02-28T16:27:31;100385.97;;;2.77;54.18
13800;BME280;6971;50.028;9.258;2023-02-28T16:32:34;100392.22;;;2.44;55.62
13800;BME280;6971;50.028;9.258;2023-02-28T16:37:35;100401.84;;;2.27;56.59
13800;BME280;6971;50.028;9.258;2023-02-28T16:42:37;100417.50;;;1.99;60.70
13800;BME280;6971;50.028;9.258;2023-02-28T16:47:38;100415.00;;;1.49;62.54
13800;BME280;6971;50.028;9.258;2023-02-28T16:52:38;100409.81;;;1.14;66.02
13800;BME280;6971;50.028;9.258;2023-02-28T16:57:39;100421.03;;;0.88;68.43
13800;BME280;6971;50.028;9.258;2023-02-28T17:02:40;100423.56;;;0.56;71.36
13800;BME280;6971;50.028;9.258;2023-02-28T17:07:42;100416.50;;;0.23;72.90
13800;BME280;6971;50.028;9.258;2023-02-28T17:12:43;100430.19;;;-0.07;75.18
13800;BME280;6971;50.028;9.258;2023-02-28T17:17:47;100437.81;;;-0.29;77.18
13800;BME280;6971;50.028;9.258;2023-02-28T17:22:57;100430.69;;;-0.58;79.43
13800;BME280;6971;50.028;9.258;2023-02-28T17:27:58;100440.03;;;-0.79;80.78
13800;BME280;6971;50.028;9.258;2023-02-28T17:32:58;100443.25;;;-1.00;81.17
13800;BME280;6971;50.028;9.258;2023-02-28T17:37:58;100447.41;;;-1.16;82.41
13800;BME280;6971;50.028;9.258;2023-02-28T17:42:59;100461.88;;;-1.34;82.78
13800;BME280;6971;50.028;9.258;2023-02-28T17:47:59;100460.84;;;-1.50;83.83
13800;BME280;6971;50.028;9.258;2023-02-28T17:52:59;100466.66;;;-1.67;85.38
13800;BME280;6971;50.028;9.258;2023-02-28T17:58:00;100470.75;;;-1.83;87.51
13800;BME280;6971;50.028;9.258;2023-02-28T18:03:00;100469.91;;;-1.84;87.84
13800;BME280;6971;50.028;9.258;2023-02-28T18:08:01;100478.41;;;-1.91;87.79
13800;BME280;6971;50.028;9.258;2023-02-28T18:13:01;100464.53;;;-1.98;88.62
13800;BME280;6971;50.028;9.258;2023-02-28T18:18:03;100471.25;;;-2.09;89.60
13800;BME280;6971;50.028;9.258;2023-02-28T18:23:05;100477.13;;;-2.19;90.74
13800;BME280;6971;50.028;9.258;2023-02-28T18:28:06;100464.00;;;-2.33;92.11
13800;BME280;6971;50.028;9.258;2023-02-28T18:33:06;100464.97;;;-2.27;91.74
13800;BME280;6971;50.028;9.258;2023-02-28T18:38:10;100467.34;;;-2.41;92.21
13800;BME280;6971;50.028;9.258;2023-02-28T18:43:11;100473.41;;;-2.37;93.77
13800;BME280;6971;50.028;9.258;2023-02-28T18:48:12;100467.28;;;-2.44;94.07
13800;BME280;6971;50.028;9.258;2023-02-28T18:53:14;100468.00;;;-2.54;94.89
13800;BME280;6971;50.028;9.258;2023-02-28T18:58:14;100465.34;;;-2.57;96.38
13800;BME280;6971;50.028;9.258;2023-02-28T19:03:14;100462.75;;;-2.59;96.77
13800;BME280;6971;50.028;9.258;2023-02-28T19:08:15;100466.97;;;-2.64;98.28
13800;BME280;6971;50.028;9.258;2023-02-28T19:13:15;100469.53;;;-2.64;98.74
13800;BME280;6971;50.028;9.258;2023-02-28T19:18:16;100465.03;;;-2.78;100.00
13800;BME280;6971;50.028;9.258;2023-02-28T19:23:16;100474.28;;;-2.88;100.00
13800;BME280;6971;50.028;9.258;2023-02-28T19:28:18;100471.94;;;-2.75;100.00
13800;BME280;6971;50.028;9.258;2023-02-28T19:33:19;100473.38;;;-2.91;100.00
13800;BME280;6971;50.028;9.258;2023-02-28T19:38:20;100476.81;;;-2.91;99.31
13800;BME280;6971;50.028;9.258;2023-02-28T19:43:20;100475.81;;;-3.00;100.00
13800;BME280;6971;50.028;9.258;2023-02-28T19:48:20;100471.44;;;-3.05;97.80
13800;BME280;6971;50.028;9.258;2023-02-28T19:53:25;100472.38;;;-2.99;97.68
13800;BME280;6971;50.028;9.258;2023-02-28T19:58:26;100474.84;;;-3.04;100.00
13800;BME280;6971;50.028;9.258;2023-02-28T20:03:27;100480.78;;;-3.10;100.00
13800;BME280;6971;50.028;9.258;2023-02-28T20:08:27;100478.06;;;-3.16;100.00
13800;BME280;6971;50.028;9.258;2023-02-28T20:13:27;100477.13;;;-3.21;100.00
13800;BME280;6971;50.028;9.258;2023-02-28T20:18:28;100476.41;;;-3.14;100.00
13800;BME280;6971;50.028;9.258;2023-02-28T20:23:28;100464.25;;;-3.20;100.00
13800;BME280;6971;50.028;9.258;2023-02-28T20:28:29;100471.78;;;-3.31;100.00
13800;BME280;6971;50.028;9.258;2023-02-28T20:33:29;100467.69;;;-3.21;100.00
13800;BME280;6971;50.028;9.258;2023-02-28T20:38:29;100466.81;;;-3.21;100.00
13800;BME280;6971;50.028;9.258;2023-02-28T20:43:30;100470.13;;;-3.27;100.00
13800;BME280;6971;50.028;9.258;2023-02-28T20:48:31;100474.28;;;-3.34;100.00
13800;BME280;6971;50.028;9.258;2023-02-28T20:53:33;100473.63;;;-3.25;100.00
13800;BME280;6971;50.028;9.258;2023-02-28T20:58:36;100470.88;;;-3.34;100.00
13800;BME280;6971;50.028;9.258;2023-02-28T21:03:57;100468.50;;;-3.23;100.00
13800;BME280;6971;50.028;9.258;2023-02-28T21:08:58;100472.72;;;-3.27;100.00
13800;BME280;6971;50.028;9.258;2023-02-28T21:13:59;100464.94;;;-3.30;100.00
13800;BME280;6971;50.028;9.258;2023-02-28T21:19:00;100467.63;;;-3.24;100.00
13800;BME280;6971;50.028;9.258;2023-02-28T21:24:04;100471.72;;;-3.34;100.00
13800;BME280;6971;50.028;9.258;2023-02-28T21:29:05;100466.91;;;-3.17;100.00
13800;BME280;6971;50.028;9.258;2023-02-28T21:34:10;100471.78;;;-3.31;100.00
13800;BME280;6971;50.028;9.258;2023-02-28T21:39:17;100470.84;;;-3.36;100.00
13800;BME280;6971;50.028;9.258;2023-02-28T21:44:18;100465.53;;;-3.44;100.00
13800;BME280;6971;50.028;9.258;2023-02-28T21:49:18;100464.72;;;-3.39;100.00
13800;BME280;6971;50.028;9.258;2023-02-28T21:54:19;100462.84;;;-3.48;100.00
13800;BME280;6971;50.028;9.258;2023-02-28T21:59:19;100461.31;;;-3.40;100.00
13800;BME280;6971;50.028;9.258;2023-02-28T22:04:19;100462.78;;;-3.51;100.00
13800;BME280;6971;50.028;9.258;2023-02-28T22:09:20;100467.19;;;-3.46;100.00
13800;BME280;6971;50.028;9.258;2023-02-28T22:14:21;100478.22;;;-3.53;100.00
13800;BME280;6971;50.028;9.258;2023-02-28T22:19:21;100480.78;;;-3.55;100.00
13800;BME280;6971;50.028;9.258;2023-02-28T22:24:22;100490.97;;;-3.59;100.00
13800;BME280;6971;50.028;9.258;2023-02-28T22:29:23;100500.56;;;-3.54;100.00
13800;BME280;6971;50.028;9.258;2023-02-28T22:34:23;100492.81;;;-3.54;100.00
13800;BME280;6971;50.028;9.258;2023-02-28T22:39:24;100490.34;;;-3.47;100.00
13800;BME280;6971;50.028;9.258;2023-02-28T22:44:24;100490.81;;;-3.67;100.00
13800;BME280;6971;50.028;9.258;2023-02-28T22:49:25;100491.00;;;-3.58;100.00
13800;BME280;6971;50.028;9.258;2023-02-28T22:54:25;100487.56;;;-3.58;100.00
13800;BME280;6971;50.028;9.258;2023-02-28T22:59:26;100483.41;;;-3.51;100.00
13800;BME280;6971;50.028;9.258;2023-02-28T23:04:26;100473.97;;;-3.51;100.00
13800;BME280;6971;50.028;9.258;2023-02-28T23:09:26;100482.31;;;-3.63;100.00
13800;BME280;6971;50.028;9.258;2023-02-28T23:14:27;100484.44;;;-3.43;100.00
13800;BME280;6971;50.028;9.258;2023-02-28T23:19:30;100490.09;;;-3.61;100.00
13800;BME280;6971;50.028;9.258;2023-02-28T23:24:33;100493.47;;;-3.62;100.00
13800;BME280;6971;50.028;9.258;2023-02-28T23:29:34;100481.38;;;-3.68;100.00
13800;BME280;6971;50.028;9.258;2023-02-28T23:34:34;100484.56;;;-3.78;100.00
13800;BME280;6971;50.028;9.258;2023-02-28T23:39:35;100488.44;;;-3.58;100.00
13800;BME280;6971;50.028;9.258;2023-02-28T23:44:35;100493.44;;;-3.64;100.00
13800;BME280;6971;50.028;9.258;2023-02-28T23:49:35;100498.31;;;-3.78;100.00
13800;BME280;6971;50.028;9.258;2023-02-28T23:54:36;100495.06;;;-3.69;100.00
13800;BME280;6971;50.028;9.258;2023-02-28T23:59:36;100496.81;;;-3.68;100.00
